Time;durP1;ratioP1;P1;durP2;ratioP2;P2;SDS_P1;SDS_P2;PMS_P1;PMS_P2;Temp;Humidity;BMP_temperature;BMP_pressure;BME280_temperature;BME280_humidity;BME280_pressure;Samples;Min_cycle;Max_cycle;Signal;HPM_P1;HPM_P2
2022/07/05 00:01:52;;;;;;;2.35;1.20;;;;;;;;;;5115053;27;20125;-73
2022/07/05 00:04:18;;;;;;;5.88;1.00;;;;;;;;;;5132085;27;20067;-73
2022/07/05 00:09:28;;;;;;;1.85;0.90;;;;;;;;;;5134410;27;20035;-74
2022/07/05 00:11:54;;;;;;;2.22;1.15;;;;;;;;;;5118591;27;20092;-74
2022/07/05 00:14:19;;;;;;;3.03;1.08;;;;;;;;;;5136836;27;20031;-73
2022/07/05 00:16:45;;;;;;;4.90;1.20;;;;;;;;;;5135977;27;20031;-74
2022/07/05 00:19:11;;;;;;;0.95;0.88;;;;;;;;;;5117672;27;20027;-73
2022/07/05 00:21:37;;;;;;;1.63;0.90;;;;;;;;;;5135877;27;20031;-73
2022/07/05 00:24:04;;;;;;;2.45;1.10;;;;;;;;;;5118462;27;20453;-73
2022/07/05 00:26:29;;;;;;;1.65;1.00;;;;;;;;;;5117904;27;20552;-73
2022/07/05 00:28:55;;;;;;;2.38;1.23;;;;;;;;;;5135603;27;20118;-73
2022/07/05 00:31:21;;;;;;;4.18;1.40;;;;;;;;;;5135793;27;20035;-73
2022/07/05 00:33:46;;;;;;;7.93;1.83;;;;;;;;;;5135449;27;20372;-73
2022/07/05 00:36:12;;;;;;;4.43;1.33;;;;;;;;;;5117512;27;20027;-73
2022/07/05 00:38:38;;;;;;;10.57;1.30;;;;;;;;;;5135279;27;20058;-73
2022/07/05 00:41:06;;;;;;;3.35;1.10;;;;;;;;;;5118221;27;20059;-74
2022/07/05 00:43:33;;;;;;;5.30;1.27;;;;;;;;;;5118171;27;20031;-74
2022/07/05 00:45:59;;;;;;;5.20;1.50;;;;;;;;;;5118076;27;20043;-73
2022/07/05 00:48:24;;;;;;;1.80;1.05;;;;;;;;;;5136604;27;20039;-73
2022/07/05 00:50:50;;;;;;;9.88;1.38;;;;;;;;;;5136138;27;20027;-73
2022/07/05 00:53:17;;;;;;;3.15;1.13;;;;;;;;;;5117809;27;20031;-73
2022/07/05 00:55:44;;;;;;;2.33;1.08;;;;;;;;;;5135069;27;20476;-73
2022/07/05 00:58:10;;;;;;;4.05;1.05;;;;;;;;;;5117739;27;20377;-74
2022/07/05 01:00:37;;;;;;;2.72;1.02;;;;;;;;;;5117588;27;20122;-73
2022/07/05 01:03:03;;;;;;;2.28;1.27;;;;;;;;;;5134788;27;20038;-73
2022/07/05 01:05:29;;;;;;;5.25;1.65;;;;;;;;;;5134099;27;20050;-73
2022/07/05 01:07:56;;;;;;;2.75;1.40;;;;;;;;;;5134729;27;20506;-74
2022/07/05 01:10:22;;;;;;;2.15;1.17;;;;;;;;;;5117473;27;20033;-73
2022/07/05 01:12:47;;;;;;;1.80;1.23;;;;;;;;;;5117451;27;20039;-74
2022/07/05 01:15:13;;;;;;;2.83;1.20;;;;;;;;;;5117330;27;20053;-73
2022/07/05 01:17:39;;;;;;;5.20;1.33;;;;;;;;;;5134753;27;20039;-73
2022/07/05 01:20:06;;;;;;;2.42;1.20;;;;;;;;;;5135392;27;20472;-73
2022/07/05 01:22:49;;;;;;;1.20;0.93;;;;;;;;;;5135730;27;20035;-73
2022/07/05 01:25:15;;;;;;;4.15;1.20;;;;;;;;;;5134343;27;20035;-73
2022/07/05 01:27:41;;;;;;;6.20;1.73;;;;;;;;;;5117133;27;20026;-73
2022/07/05 01:30:08;;;;;;;5.75;1.33;;;;;;;;;;5135622;27;20428;-73
2022/07/05 01:32:33;;;;;;;2.45;1.20;;;;;;;;;;5134137;27;20362;-73
2022/07/05 01:35:00;;;;;;;1.58;1.08;;;;;;;;;;5134132;27;20034;-73
2022/07/05 01:37:26;;;;;;;4.97;1.20;;;;;;;;;;5116004;27;20473;-73
2022/07/05 01:39:53;;;;;;;2.10;1.52;;;;;;;;;;5134136;27;20118;-73
2022/07/05 01:42:18;;;;;;;2.95;1.20;;;;;;;;;;5116803;27;20023;-74
2022/07/05 01:44:44;;;;;;;2.65;1.20;;;;;;;;;;5134120;27;20038;-73
2022/07/05 01:47:09;;;;;;;2.42;1.20;;;;;;;;;;5133823;27;20122;-74
2022/07/05 01:49:40;;;;;;;7.85;1.40;;;;;;;;;;5116779;27;20103;-73
2022/07/05 01:52:11;;;;;;;9.30;1.55;;;;;;;;;;5133808;27;20054;-74
2022/07/05 01:54:39;;;;;;;2.60;1.40;;;;;;;;;;5133898;27;20031;-73
2022/07/05 01:57:06;;;;;;;1.48;1.08;;;;;;;;;;5116741;27;20055;-73
2022/07/05 01:59:36;;;;;;;2.55;1.23;;;;;;;;;;5133651;27;20054;-73
2022/07/05 02:02:02;;;;;;;2.35;1.38;;;;;;;;;;5134877;27;20699;-73
2022/07/05 02:04:29;;;;;;;4.60;1.27;;;;;;;;;;5133515;27;20027;-73
2022/07/05 02:06:55;;;;;;;3.28;1.35;;;;;;;;;;5133461;27;20031;-73
2022/07/05 02:09:21;;;;;;;4.72;1.35;;;;;;;;;;5116304;27;20057;-73
2022/07/05 02:11:46;;;;;;;3.50;1.30;;;;;;;;;;5133600;27;20544;-73
2022/07/05 02:14:13;;;;;;;8.50;1.42;;;;;;;;;;5132281;27;20069;-73
2022/07/05 02:16:40;;;;;;;1.08;1.08;;;;;;;;;;5116480;27;20057;-73
2022/07/05 02:19:06;;;;;;;1.55;1.17;;;;;;;;;;5131901;27;20246;-73
2022/07/05 02:21:36;;;;;;;3.15;1.50;;;;;;;;;;5130686;27;20039;-73
2022/07/05 02:24:05;;;;;;;3.20;1.40;;;;;;;;;;5114228;27;20096;-73
2022/07/05 02:26:35;;;;;;;1.70;1.17;;;;;;;;;;5131088;27;20031;-72
2022/07/05 02:29:04;;;;;;;2.33;1.45;;;;;;;;;;5131005;27;20488;-73
2022/07/05 02:31:31;;;;;;;10.27;2.67;;;;;;;;;;5113622;28;20042;-73
2022/07/05 02:33:57;;;;;;;1.95;1.13;;;;;;;;;;5113449;27;20404;-74
2022/07/05 02:36:24;;;;;;;1.30;1.20;;;;;;;;;;5113366;27;20434;-73
2022/07/05 02:38:50;;;;;;;1.48;1.20;;;;;;;;;;5130838;27;20034;-73
2022/07/05 02:41:16;;;;;;;4.03;1.73;;;;;;;;;;5113850;27;20516;-73
2022/07/05 02:43:45;;;;;;;4.13;1.60;;;;;;;;;;5130848;27;20046;-73
2022/07/05 02:46:12;;;;;;;3.38;1.45;;;;;;;;;;5130858;27;20120;-73
2022/07/05 02:48:39;;;;;;;2.97;1.40;;;;;;;;;;5130734;27;20031;-73
2022/07/05 02:51:06;;;;;;;3.13;1.45;;;;;;;;;;5113998;27;20075;-73
2022/07/05 02:53:34;;;;;;;2.30;1.17;;;;;;;;;;5132462;27;20036;-75
2022/07/05 02:56:01;;;;;;;3.45;1.67;;;;;;;;;;5132889;27;20059;-74
2022/07/05 02:58:27;;;;;;;2.60;1.48;;;;;;;;;;5115644;28;20035;-73
2022/07/05 03:00:53;;;;;;;3.42;1.50;;;;;;;;;;5115913;28;20380;-74
2022/07/05 03:03:23;;;;;;;1.75;1.40;;;;;;;;;;5115995;28;20113;-75
2022/07/05 03:05:49;;;;;;;3.88;1.55;;;;;;;;;;5132948;28;20038;-73
2022/07/05 03:08:15;;;;;;;2.03;1.35;;;;;;;;;;5132667;27;20521;-73
2022/07/05 03:10:43;;;;;;;4.32;1.17;;;;;;;;;;5115800;28;20038;-73
2022/07/05 03:13:09;;;;;;;2.78;1.23;;;;;;;;;;5115056;28;20056;-73
2022/07/05 03:15:35;;;;;;;3.92;1.63;;;;;;;;;;5115931;28;20035;-73
2022/07/05 03:18:01;;;;;;;4.63;1.88;;;;;;;;;;5132732;27;20041;-73
2022/07/05 03:20:29;;;;;;;2.47;1.30;;;;;;;;;;5115829;28;20023;-73
2022/07/05 03:22:55;;;;;;;7.22;2.13;;;;;;;;;;5134035;27;20031;-73
2022/07/05 03:25:27;;;;;;;1.90;1.15;;;;;;;;;;5132601;28;20521;-72
2022/07/05 03:27:52;;;;;;;4.22;1.52;;;;;;;;;;5115640;28;20062;-73
2022/07/05 03:30:18;;;;;;;6.13;1.63;;;;;;;;;;5133860;27;20038;-73
2022/07/05 03:32:44;;;;;;;2.75;1.48;;;;;;;;;;5115258;28;20067;-73
2022/07/05 03:35:10;;;;;;;5.82;1.90;;;;;;;;;;5132603;28;20449;-73
2022/07/05 03:37:36;;;;;;;3.47;1.38;;;;;;;;;;5133444;27;20039;-73
2022/07/05 03:40:03;;;;;;;4.90;1.90;;;;;;;;;;5130776;27;20054;-73
2022/07/05 03:42:30;;;;;;;7.50;1.60;;;;;;;;;;5132490;27;20028;-73
2022/07/05 03:44:56;;;;;;;3.28;1.60;;;;;;;;;;5119088;27;20053;-73
2022/07/05 03:47:22;;;;;;;2.35;1.30;;;;;;;;;;5137799;27;20059;-73
2022/07/05 03:49:48;;;;;;;5.35;1.58;;;;;;;;;;5119483;27;20045;-73
2022/07/05 03:52:14;;;;;;;4.50;1.65;;;;;;;;;;5136252;27;20039;-73
2022/07/05 03:54:40;;;;;;;8.07;1.75;;;;;;;;;;5135989;27;20434;-73
2022/07/05 03:57:06;;;;;;;5.18;1.48;;;;;;;;;;5136192;27;20046;-73
2022/07/05 03:59:33;;;;;;;5.57;1.45;;;;;;;;;;5119014;27;20522;-73
2022/07/05 04:01:59;;;;;;;5.05;1.70;;;;;;;;;;5118981;27;20117;-73
2022/07/05 04:04:25;;;;;;;2.75;1.60;;;;;;;;;;5118974;27;20027;-73
2022/07/05 04:06:52;;;;;;;5.35;1.70;;;;;;;;;;5119006;27;20031;-73
2022/07/05 04:09:18;;;;;;;4.47;1.40;;;;;;;;;;5118671;27;20038;-73
2022/07/05 04:11:44;;;;;;;3.30;1.50;;;;;;;;;;5134927;27;20380;-73
2022/07/05 04:14:10;;;;;;;2.42;1.75;;;;;;;;;;5118582;27;20035;-73
2022/07/05 04:16:37;;;;;;;5.07;1.67;;;;;;;;;;5135802;27;20507;-73
2022/07/05 04:19:04;;;;;;;1.80;1.58;;;;;;;;;;5135685;27;20110;-74
2022/07/05 04:21:31;;;;;;;8.75;2.03;;;;;;;;;;5118566;27;20482;-73
2022/07/05 04:23:58;;;;;;;3.53;1.80;;;;;;;;;;5135537;27;20111;-73
2022/07/05 04:26:24;;;;;;;5.10;1.58;;;;;;;;;;5118252;27;20119;-73
2022/07/05 04:28:50;;;;;;;6.28;1.50;;;;;;;;;;5118565;27;20184;-73
2022/07/05 04:31:22;;;;;;;4.15;1.50;;;;;;;;;;5135536;27;20035;-73
2022/07/05 04:33:50;;;;;;;5.07;2.47;;;;;;;;;;5135327;27;20031;-73
2022/07/05 04:36:20;;;;;;;2.92;1.73;;;;;;;;;;5131249;27;20027;-73
2022/07/05 04:38:49;;;;;;;6.80;2.20;;;;;;;;;;5114402;28;20517;-74
2022/07/05 04:41:15;;;;;;;5.32;1.80;;;;;;;;;;5114598;28;20092;-74
2022/07/05 04:43:42;;;;;;;4.80;1.85;;;;;;;;;;5097773;28;20028;-74
2022/07/05 04:46:11;;;;;;;3.33;1.80;;;;;;;;;;5114589;28;20030;-73
2022/07/05 04:48:37;;;;;;;3.63;1.80;;;;;;;;;;5097564;28;20023;-73
2022/07/05 04:51:04;;;;;;;3.80;1.55;;;;;;;;;;5097773;28;20560;-74
2022/07/05 04:53:32;;;;;;;10.10;2.10;;;;;;;;;;5097623;28;20039;-73
2022/07/05 04:55:58;;;;;;;7.75;2.00;;;;;;;;;;5115053;28;20038;-74
2022/07/05 04:58:23;;;;;;;11.02;2.60;;;;;;;;;;5114567;28;20040;-73
2022/07/05 05:00:49;;;;;;;2.75;1.55;;;;;;;;;;5114584;28;20031;-73
2022/07/05 05:03:14;;;;;;;5.72;1.65;;;;;;;;;;5115458;28;20043;-73
2022/07/05 05:05:40;;;;;;;5.65;1.80;;;;;;;;;;5115424;28;20500;-74
2022/07/05 05:08:05;;;;;;;2.25;1.80;;;;;;;;;;5132139;27;20152;-72
2022/07/05 05:10:30;;;;;;;5.40;2.00;;;;;;;;;;5135904;27;20027;-74
2022/07/05 05:12:56;;;;;;;5.30;1.80;;;;;;;;;;5134505;27;20031;-75
2022/07/05 05:15:21;;;;;;;6.50;2.10;;;;;;;;;;5135742;27;20062;-75
2022/07/05 05:17:47;;;;;;;3.92;1.80;;;;;;;;;;5117471;27;20143;-74
2022/07/05 05:20:16;;;;;;;4.25;1.60;;;;;;;;;;5117202;27;20035;-75
2022/07/05 05:22:41;;;;;;;5.65;1.65;;;;;;;;;;5135222;27;20035;-74
2022/07/05 05:25:08;;;;;;;3.22;1.70;;;;;;;;;;5135467;27;20035;-75
2022/07/05 05:27:34;;;;;;;5.18;1.40;;;;;;;;;;5117036;27;20050;-74
2022/07/05 05:30:00;;;;;;;3.83;1.75;;;;;;;;;;5134287;27;20035;-74
2022/07/05 05:32:25;;;;;;;6.30;1.70;;;;;;;;;;5133775;27;20031;-74
2022/07/05 05:34:51;;;;;;;7.03;2.03;;;;;;;;;;5133735;27;20023;-74
2022/07/05 05:37:17;;;;;;;3.42;1.75;;;;;;;;;;5116114;27;20577;-74
2022/07/05 05:39:43;;;;;;;4.07;1.60;;;;;;;;;;5117116;27;20039;-73
2022/07/05 05:42:09;;;;;;;3.30;1.67;;;;;;;;;;5117195;27;20487;-74
2022/07/05 05:44:35;;;;;;;4.53;1.60;;;;;;;;;;5116916;27;20083;-74
2022/07/05 05:47:01;;;;;;;6.05;1.75;;;;;;;;;;5116919;27;20366;-74
2022/07/05 05:49:26;;;;;;;3.85;1.60;;;;;;;;;;5135445;27;20083;-74
2022/07/05 05:51:53;;;;;;;7.72;1.50;;;;;;;;;;5134955;27;20039;-75
2022/07/05 05:54:20;;;;;;;4.43;1.40;;;;;;;;;;5133852;27;20031;-73
2022/07/05 05:56:47;;;;;;;5.05;1.65;;;;;;;;;;5116719;27;20027;-74
2022/07/05 05:59:12;;;;;;;7.30;2.08;;;;;;;;;;5134062;27;20106;-75
2022/07/05 06:01:38;;;;;;;3.17;1.58;;;;;;;;;;5133263;27;20035;-74
2022/07/05 06:04:04;;;;;;;2.78;1.70;;;;;;;;;;5134819;27;20087;-74
2022/07/05 06:06:29;;;;;;;5.35;1.73;;;;;;;;;;5131124;27;20480;-75
2022/07/05 06:08:56;;;;;;;4.93;1.90;;;;;;;;;;5114074;28;20081;-76
2022/07/05 06:11:22;;;;;;;6.45;1.65;;;;;;;;;;5119352;27;20082;-74
2022/07/05 06:13:47;;;;;;;3.53;1.50;;;;;;;;;;5116268;27;20055;-75
2022/07/05 06:16:13;;;;;;;6.82;1.98;;;;;;;;;;5133596;27;20035;-76
2022/07/05 06:18:38;;;;;;;5.80;1.80;;;;;;;;;;5116357;27;20114;-76
2022/07/05 06:21:04;;;;;;;2.83;1.38;;;;;;;;;;5113515;27;20396;-76
2022/07/05 06:23:29;;;;;;;5.60;1.60;;;;;;;;;;5132563;27;20031;-75
2022/07/05 06:25:55;;;;;;;1.63;1.30;;;;;;;;;;5148369;27;20039;-75
2022/07/05 06:28:22;;;;;;;4.32;1.40;;;;;;;;;;5153361;27;20499;-76
2022/07/05 06:30:48;;;;;;;2.35;1.55;;;;;;;;;;5136220;27;20034;-77
2022/07/05 06:33:13;;;;;;;7.28;2.25;;;;;;;;;;5153819;27;20037;-76
2022/07/05 06:35:40;;;;;;;5.03;1.38;;;;;;;;;;5119257;27;20035;-76
2022/07/05 06:38:08;;;;;;;5.65;1.73;;;;;;;;;;5095602;28;20052;-75
2022/07/05 06:40:36;;;;;;;3.58;1.20;;;;;;;;;;5095781;28;20058;-77
2022/07/05 06:43:04;;;;;;;4.57;1.20;;;;;;;;;;5111954;28;20061;-74
2022/07/05 06:45:55;;;;;;;5.85;1.98;;;;;;;;;;5113526;27;20040;-76
2022/07/05 06:48:22;;;;;;;2.28;1.08;;;;;;;;;;5113270;28;20046;-79
2022/07/05 06:50:49;;;;;;;2.53;1.20;;;;;;;;;;5095464;28;20037;-75
2022/07/05 06:53:15;;;;;;;5.90;1.40;;;;;;;;;;5112178;28;20040;-76
2022/07/05 06:55:44;;;;;;;2.92;1.33;;;;;;;;;;5113548;28;20032;-76
2022/07/05 06:58:10;;;;;;;4.68;1.40;;;;;;;;;;5112346;28;20039;-76
2022/07/05 07:00:37;;;;;;;2.22;1.20;;;;;;;;;;5113054;28;20032;-76
2022/07/05 07:03:02;;;;;;;1.90;1.20;;;;;;;;;;5100046;28;20031;-75
2022/07/05 07:05:28;;;;;;;5.25;1.30;;;;;;;;;;5133218;28;20026;-75
2022/07/05 07:10:38;;;;;;;2.72;1.13;;;;;;;;;;5132456;27;20098;-76
2022/07/05 07:13:07;;;;;;;8.10;1.20;;;;;;;;;;5110072;28;20032;-78
2022/07/05 07:15:37;;;;;;;4.20;1.35;;;;;;;;;;5114771;28;20026;-80
2022/07/05 07:18:04;;;;;;;3.03;1.10;;;;;;;;;;5096487;28;20503;-75
2022/07/05 07:20:31;;;;;;;3.65;1.40;;;;;;;;;;5099140;28;20069;-76
2022/07/05 07:22:56;;;;;;;3.78;1.20;;;;;;;;;;5124520;27;20109;-75
2022/07/05 07:25:23;;;;;;;3.05;1.23;;;;;;;;;;5136528;27;20069;-77
2022/07/05 07:27:51;;;;;;;2.20;0.82;;;;;;;;;;5137160;27;20035;-75
2022/07/05 07:30:26;;;;;;;1.75;0.88;;;;;;;;;;5138193;27;20058;-79
2022/07/05 07:32:53;;;;;;;;;;;;;;;;;;5139299;27;20035;-76
2022/07/05 07:35:20;;;;;;;3.13;1.00;;;;;;;;;;5118225;27;19930;-76
2022/07/05 07:37:47;;;;;;;4.32;1.67;;;;;;;;;;5116369;27;20051;-76
2022/07/05 07:40:13;;;;;;;6.72;1.70;;;;;;;;;;5151624;27;20031;-76
2022/07/05 07:42:40;;;;;;;5.10;1.73;;;;;;;;;;5158634;27;20035;-76
2022/07/05 07:45:07;;;;;;;2.28;0.55;;;;;;;;;;5157124;27;20031;-76
2022/07/05 07:47:34;;;;;;;5.75;0.90;;;;;;;;;;5139951;27;20031;-76
2022/07/05 07:50:01;;;;;;;4.05;0.75;;;;;;;;;;5136768;27;20035;-76
2022/07/05 07:52:27;;;;;;;4.50;1.30;;;;;;;;;;5135561;27;20110;-77
2022/07/05 07:54:53;;;;;;;1.85;0.80;;;;;;;;;;5135075;27;20134;-76
2022/07/05 07:57:19;;;;;;;2.47;1.00;;;;;;;;;;5117964;27;20027;-77
2022/07/05 07:59:45;;;;;;;3.55;1.10;;;;;;;;;;5135068;27;20076;-77
2022/07/05 08:02:11;;;;;;;5.15;1.00;;;;;;;;;;5136385;27;20063;-76
2022/07/05 08:04:37;;;;;;;4.75;1.20;;;;;;;;;;5135113;27;20487;-76
2022/07/05 08:07:03;;;;;;;2.00;0.77;;;;;;;;;;5118035;27;20513;-77
2022/07/05 08:09:31;;;;;;;3.88;1.13;;;;;;;;;;5137198;27;20031;-76
2022/07/05 08:11:56;;;;;;;2.25;0.90;;;;;;;;;;5135059;27;20035;-76
2022/07/05 08:14:23;;;;;;;2.28;0.85;;;;;;;;;;5135830;27;20061;-77
2022/07/05 08:16:50;;;;;;;2.28;1.00;;;;;;;;;;5135868;27;20031;-77
2022/07/05 08:22:03;;;;;;;7.13;1.05;;;;;;;;;;5135876;27;20496;-77
2022/07/05 08:24:28;;;;;;;3.53;1.20;;;;;;;;;;5118767;27;20121;-77
2022/07/05 08:26:54;;;;;;;2.60;1.10;;;;;;;;;;5136868;27;20110;-76
2022/07/05 08:29:19;;;;;;;5.38;1.30;;;;;;;;;;5135092;27;20176;-76
2022/07/05 08:31:47;;;;;;;2.60;1.10;;;;;;;;;;5117856;27;20031;-77
2022/07/05 08:34:13;;;;;;;3.38;1.00;;;;;;;;;;5135231;27;20042;-76
2022/07/05 08:36:41;;;;;;;2.90;0.85;;;;;;;;;;5134622;27;20031;-76
2022/07/05 08:39:06;;;;;;;7.50;1.30;;;;;;;;;;5135471;27;20500;-76
2022/07/05 08:41:36;;;;;;;2.97;1.10;;;;;;;;;;5135396;27;20510;-77
2022/07/05 08:44:03;;;;;;;10.77;1.63;;;;;;;;;;5135488;27;20384;-77
2022/07/05 08:46:31;;;;;;;2.35;1.00;;;;;;;;;;5135285;27;20037;-77
2022/07/05 08:49:00;;;;;;;2.00;0.80;;;;;;;;;;5135318;27;20050;-76
2022/07/05 08:51:28;;;;;;;1.70;0.88;;;;;;;;;;5136457;27;20039;-76
2022/07/05 08:53:55;;;;;;;3.53;0.93;;;;;;;;;;5118004;27;20080;-77
2022/07/05 08:56:21;;;;;;;1.80;0.68;;;;;;;;;;5117841;27;20027;-77
2022/07/05 08:58:51;;;;;;;3.38;1.20;;;;;;;;;;5118116;27;20039;-77
2022/07/05 09:01:18;;;;;;;5.65;1.65;;;;;;;;;;5117891;27;20066;-76
2022/07/05 09:03:49;;;;;;;2.35;0.80;;;;;;;;;;5117728;27;20035;-76
2022/07/05 09:06:21;;;;;;;5.97;1.42;;;;;;;;;;5117077;27;20042;-76
2022/07/05 09:08:50;;;;;;;1.83;0.90;;;;;;;;;;5117764;27;20039;-77
2022/07/05 09:11:18;;;;;;;3.35;1.05;;;;;;;;;;5135904;27;20031;-77
2022/07/05 09:13:48;;;;;;;3.78;1.10;;;;;;;;;;5134716;27;20112;-77
2022/07/05 09:16:14;;;;;;;7.65;1.05;;;;;;;;;;5134975;27;20039;-77
2022/07/05 09:18:48;;;;;;;1.75;0.98;;;;;;;;;;5117422;27;20035;-77
2022/07/05 09:21:19;;;;;;;2.67;0.82;;;;;;;;;;5134522;27;20039;-77
2022/07/05 09:23:56;;;;;;;3.40;1.30;;;;;;;;;;5117490;27;20034;-77
2022/07/05 09:26:35;;;;;;;3.72;1.00;;;;;;;;;;5133194;27;20031;-77
2022/07/05 09:29:02;;;;;;;1.30;0.98;;;;;;;;;;5137470;27;20456;-76
2022/07/05 09:31:34;;;;;;;9.38;1.20;;;;;;;;;;5138954;27;20019;-76
2022/07/05 09:34:07;;;;;;;4.90;1.00;;;;;;;;;;5135486;27;20116;-78
2022/07/05 09:36:58;;;;;;;2.67;0.98;;;;;;;;;;5135277;27;20027;-77
2022/07/05 09:39:29;;;;;;;5.70;1.00;;;;;;;;;;5124659;27;20039;-78
2022/07/05 09:42:20;;;;;;;5.03;1.02;;;;;;;;;;5120483;27;20039;-79
2022/07/05 09:45:05;;;;;;;5.45;1.25;;;;;;;;;;5127608;27;20035;-78
2022/07/05 09:47:31;;;;;;;2.55;0.98;;;;;;;;;;5100869;28;20036;-81
2022/07/05 09:50:06;;;;;;;2.55;1.00;;;;;;;;;;5108204;28;20051;-82
2022/07/05 09:52:32;;;;;;;2.03;0.90;;;;;;;;;;5124328;28;20062;-81
2022/07/05 09:55:12;;;;;;;2.40;0.85;;;;;;;;;;5106549;28;20492;-80
2022/07/05 09:57:40;;;;;;;2.67;0.90;;;;;;;;;;5121180;28;20031;-81
2022/07/05 10:00:15;;;;;;;3.17;1.00;;;;;;;;;;5119885;28;20069;-81
2022/07/05 10:02:45;;;;;;;2.03;0.90;;;;;;;;;;5117362;28;20032;-81
2022/07/05 10:05:31;;;;;;;8.35;1.27;;;;;;;;;;5099583;28;20035;-78
2022/07/05 10:07:58;;;;;;;1.92;0.75;;;;;;;;;;5116165;28;20481;-86
2022/07/05 10:10:25;;;;;;;1.42;1.00;;;;;;;;;;5096933;28;20481;-88
2022/07/05 10:13:01;;;;;;;4.35;1.10;;;;;;;;;;5096545;28;20038;-88
2022/07/05 10:15:35;;;;;;;2.72;1.10;;;;;;;;;;5113507;28;20043;-89
2022/07/05 10:18:12;;;;;;;6.78;1.25;;;;;;;;;;5096556;28;20066;-88
2022/07/05 10:20:43;;;;;;;4.50;1.13;;;;;;;;;;5113325;28;20027;-87
2022/07/05 10:23:16;;;;;;;3.03;0.90;;;;;;;;;;5096254;28;20031;-89
2022/07/05 10:25:48;;;;;;;4.70;0.90;;;;;;;;;;5097052;28;20058;-86
2022/07/05 10:28:19;;;;;;;3.63;0.80;;;;;;;;;;5099490;28;20043;-84
2022/07/05 10:30:46;;;;;;;1.48;0.90;;;;;;;;;;5100407;28;20050;-80
2022/07/05 10:33:14;;;;;;;4.65;1.10;;;;;;;;;;5116513;28;20122;-80
2022/07/05 10:35:43;;;;;;;2.40;1.10;;;;;;;;;;5126139;27;20548;-79
2022/07/05 10:38:11;;;;;;;3.95;1.55;;;;;;;;;;5156597;27;20051;-80
2022/07/05 10:40:38;;;;;;;2.05;1.23;;;;;;;;;;5158153;27;20027;-80
2022/07/05 10:43:04;;;;;;;1.63;0.93;;;;;;;;;;5157413;27;20500;-80
2022/07/05 10:45:32;;;;;;;3.13;1.15;;;;;;;;;;5157966;27;20104;-80
2022/07/05 10:48:09;;;;;;;1.52;0.95;;;;;;;;;;5158635;27;20045;-81
2022/07/05 10:50:56;;;;;;;2.50;1.00;;;;;;;;;;5158761;27;20116;-81
2022/07/05 10:53:23;;;;;;;3.70;1.08;;;;;;;;;;5140376;27;20037;-81
2022/07/05 10:55:49;;;;;;;3.20;0.93;;;;;;;;;;5158960;27;20045;-81
2022/07/05 10:58:38;;;;;;;3.40;1.00;;;;;;;;;;5141271;27;20064;-80
2022/07/05 11:01:19;;;;;;;6.10;1.15;;;;;;;;;;5158845;27;20498;-81
2022/07/05 11:03:58;;;;;;;2.85;1.05;;;;;;;;;;5159799;27;20038;-81
2022/07/05 11:06:25;;;;;;;0.90;0.70;;;;;;;;;;5119203;27;20035;-81
2022/07/05 11:08:57;;;;;;;1.83;0.80;;;;;;;;;;5117948;28;20035;-81
2022/07/05 11:11:24;;;;;;;3.38;0.85;;;;;;;;;;5118159;28;20035;-81
2022/07/05 11:13:51;;;;;;;1.10;0.73;;;;;;;;;;5118622;28;20024;-81
2022/07/05 11:16:28;;;;;;;3.55;0.90;;;;;;;;;;5119515;28;20100;-82
2022/07/05 11:19:13;;;;;;;10.70;0.90;;;;;;;;;;5119222;28;20089;-81
2022/07/05 11:21:43;;;;;;;5.63;0.90;;;;;;;;;;5120757;28;20071;-81
2022/07/05 11:24:26;;;;;;;4.65;1.13;;;;;;;;;;5101449;28;20043;-81
2022/07/05 11:26:55;;;;;;;12.10;1.20;;;;;;;;;;5118365;28;20027;-81
2022/07/05 11:29:41;;;;;;;7.20;1.00;;;;;;;;;;5118857;28;20031;-81
2022/07/05 11:32:08;;;;;;;1.90;0.80;;;;;;;;;;5119086;28;20088;-81
2022/07/05 11:34:35;;;;;;;3.88;1.13;;;;;;;;;;5105252;28;20506;-81
2022/07/05 11:37:16;;;;;;;2.58;0.90;;;;;;;;;;5122224;28;20065;-81
2022/07/05 11:39:42;;;;;;;1.85;0.80;;;;;;;;;;5138638;28;20177;-81
2022/07/05 11:42:19;;;;;;;5.72;0.82;;;;;;;;;;5122612;28;20391;-81
2022/07/05 11:44:52;;;;;;;6.95;1.30;;;;;;;;;;5119627;28;20139;-80
2022/07/05 11:47:21;;;;;;;4.38;0.95;;;;;;;;;;5119230;28;20039;-80
2022/07/05 11:49:57;;;;;;;2.50;1.00;;;;;;;;;;5119215;28;20038;-81
2022/07/05 11:52:27;;;;;;;3.05;0.70;;;;;;;;;;5136077;28;20059;-81
2022/07/05 11:54:54;;;;;;;1.80;0.77;;;;;;;;;;5119187;28;20464;-79
2022/07/05 11:57:20;;;;;;;0.98;0.70;;;;;;;;;;5135169;28;20143;-81
2022/07/05 11:59:46;;;;;;;0.82;0.65;;;;;;;;;;5136381;28;20039;-80
2022/07/05 12:02:12;;;;;;;2.00;0.57;;;;;;;;;;5126081;28;20031;-80
2022/07/05 12:04:38;;;;;;;2.70;0.95;;;;;;;;;;5138229;27;20028;-80
2022/07/05 12:07:05;;;;;;;5.30;1.10;;;;;;;;;;5107951;28;20028;-80
2022/07/05 12:15:08;;;;;;;2.58;0.80;;;;;;;;;;5124495;28;19919;-80
2022/07/05 12:17:35;;;;;;;5.13;1.10;;;;;;;;;;5108694;28;20035;-80
2022/07/05 12:20:01;;;;;;;4.22;0.90;;;;;;;;;;5107815;28;20061;-79
2022/07/05 12:22:46;;;;;;;1.42;0.95;;;;;;;;;;5125212;28;20036;-79
2022/07/05 12:25:16;;;;;;;2.65;0.98;;;;;;;;;;5107816;28;20043;-80
2022/07/05 12:27:45;;;;;;;3.03;1.27;;;;;;;;;;5123554;28;20122;-79
2022/07/05 12:30:12;;;;;;;7.57;1.25;;;;;;;;;;5124221;28;20083;-79
2022/07/05 12:32:58;;;;;;;3.90;1.10;;;;;;;;;;5106428;28;20118;-79
2022/07/05 12:35:27;;;;;;;6.95;1.00;;;;;;;;;;5127606;27;20043;-79
2022/07/05 12:37:54;;;;;;;7.60;1.10;;;;;;;;;;5132126;27;20039;-79
2022/07/05 12:40:22;;;;;;;2.58;1.00;;;;;;;;;;5144362;27;20046;-79
2022/07/05 12:43:10;;;;;;;6.72;1.30;;;;;;;;;;5126335;27;20046;-79
2022/07/05 12:45:36;;;;;;;1.67;0.93;;;;;;;;;;5143386;27;20042;-80
2022/07/05 12:48:04;;;;;;;4.80;1.20;;;;;;;;;;5127055;27;20064;-79
2022/07/05 12:50:47;;;;;;;2.50;0.93;;;;;;;;;;5127875;27;20038;-79
2022/07/05 12:58:49;;;;;;;4.20;1.00;;;;;;;;;;5146567;27;20118;-80
2022/07/05 13:01:19;;;;;;;3.83;0.90;;;;;;;;;;5146622;27;20035;-79
2022/07/05 13:04:08;;;;;;;1.33;0.90;;;;;;;;;;5128869;27;20027;-79
2022/07/05 13:07:00;;;;;;;7.97;1.10;;;;;;;;;;5108190;28;20031;-80
2022/07/05 13:09:32;;;;;;;1.55;0.80;;;;;;;;;;5124371;28;20053;-80
2022/07/05 13:12:06;;;;;;;4.18;0.90;;;;;;;;;;5124437;28;20031;-80
2022/07/05 13:14:32;;;;;;;3.50;1.00;;;;;;;;;;5123846;28;20070;-79
2022/07/05 13:16:58;;;;;;;2.95;0.75;;;;;;;;;;5106198;28;20039;-79
2022/07/05 13:19:25;;;;;;;2.38;0.70;;;;;;;;;;5107405;28;20038;-79
2022/07/05 13:21:51;;;;;;;5.07;0.88;;;;;;;;;;5125445;28;20057;-79
2022/07/05 13:24:17;;;;;;;5.47;1.05;;;;;;;;;;5123288;28;20020;-79
2022/07/05 13:26:43;;;;;;;5.40;0.85;;;;;;;;;;5107009;28;20019;-79
2022/07/05 13:29:10;;;;;;;2.30;0.80;;;;;;;;;;5106180;28;20467;-79
2022/07/05 13:31:35;;;;;;;2.58;1.00;;;;;;;;;;5125202;28;20036;-79
2022/07/05 13:34:02;;;;;;;4.43;1.30;;;;;;;;;;5100494;28;20057;-77
2022/07/05 13:36:28;;;;;;;8.00;1.48;;;;;;;;;;5115875;28;20043;-78
2022/07/05 13:38:53;;;;;;;3.60;1.90;;;;;;;;;;5120051;27;20047;-77
2022/07/05 13:41:20;;;;;;;4.95;1.50;;;;;;;;;;5137986;27;20040;-77
2022/07/05 13:43:46;;;;;;;1.23;0.90;;;;;;;;;;5119870;27;20034;-77
2022/07/05 13:46:12;;;;;;;5.93;3.65;;;;;;;;;;5137988;27;20754;-78
2022/07/05 13:48:39;;;;;;;4.72;1.40;;;;;;;;;;5138636;27;20066;-77
2022/07/05 13:51:05;;;;;;;3.80;1.45;;;;;;;;;;5138852;27;20130;-78
2022/07/05 13:53:30;;;;;;;2.20;1.10;;;;;;;;;;5120731;27;20118;-77
2022/07/05 13:55:56;;;;;;;2.70;1.10;;;;;;;;;;5120796;27;20058;-77
2022/07/05 13:58:24;;;;;;;3.45;1.13;;;;;;;;;;5122252;27;20054;-78
2022/07/05 14:00:49;;;;;;;4.20;1.83;;;;;;;;;;5137945;27;20092;-78
2022/07/05 14:03:16;;;;;;;3.78;1.00;;;;;;;;;;5118769;27;20034;-78
2022/07/05 14:05:46;;;;;;;10.70;1.70;;;;;;;;;;5106066;28;20545;-77
2022/07/05 14:08:14;;;;;;;5.53;1.00;;;;;;;;;;5115237;28;20431;-78
2022/07/05 14:10:40;;;;;;;2.67;1.00;;;;;;;;;;5097773;28;20031;-77
2022/07/05 14:13:06;;;;;;;6.07;1.00;;;;;;;;;;5113224;28;20046;-77
2022/07/05 14:15:32;;;;;;;1.75;0.85;;;;;;;;;;5097327;28;20031;-78
2022/07/05 14:18:00;;;;;;;8.20;0.95;;;;;;;;;;5116608;28;20103;-77
2022/07/05 14:20:25;;;;;;;3.22;0.95;;;;;;;;;;5098822;28;20036;-77
2022/07/05 14:22:51;;;;;;;3.80;0.90;;;;;;;;;;5115289;28;20035;-78
2022/07/05 14:25:17;;;;;;;3.67;1.00;;;;;;;;;;5114752;28;20377;-77
2022/07/05 14:27:43;;;;;;;3.33;0.95;;;;;;;;;;5115117;28;20031;-77
2022/07/05 14:30:10;;;;;;;1.95;0.68;;;;;;;;;;5100499;28;20042;-78
2022/07/05 14:32:37;;;;;;;1.30;0.65;;;;;;;;;;5099818;28;20518;-78
2022/07/05 14:35:09;;;;;;;5.03;1.00;;;;;;;;;;5099792;28;20040;-79
2022/07/05 14:37:35;;;;;;;3.13;0.95;;;;;;;;;;5145893;27;20068;-78
2022/07/05 14:40:00;;;;;;;2.25;0.80;;;;;;;;;;5162370;27;20129;-79
2022/07/05 14:42:27;;;;;;;4.88;0.90;;;;;;;;;;5143434;27;20066;-78
2022/07/05 14:44:52;;;;;;;4.38;1.00;;;;;;;;;;5142287;27;20029;-78
2022/07/05 14:47:21;;;;;;;4.78;0.75;;;;;;;;;;5143494;27;20030;-79
2022/07/05 14:49:47;;;;;;;2.75;1.10;;;;;;;;;;5160990;27;20035;-78
2022/07/05 14:52:13;;;;;;;7.30;0.70;;;;;;;;;;5161546;27;20061;-78
2022/07/05 14:54:39;;;;;;;9.00;0.93;;;;;;;;;;5143559;27;20079;-79
2022/07/05 14:57:05;;;;;;;1.80;1.08;;;;;;;;;;5159992;27;20437;-79
2022/07/05 14:59:33;;;;;;;2.03;1.20;;;;;;;;;;5159587;27;20086;-78
2022/07/05 15:01:58;;;;;;;11.93;1.10;;;;;;;;;;5139979;27;20132;-78
2022/07/05 15:04:25;;;;;;;3.00;1.00;;;;;;;;;;5142348;27;20521;-80
2022/07/05 15:06:53;;;;;;;4.40;1.05;;;;;;;;;;5141771;27;20038;-79
2022/07/05 15:09:18;;;;;;;0.85;0.63;;;;;;;;;;5141251;27;20560;-78